Houlton, Wisconsin
Current Conditions -  °F | °C
As of 1:51 AM on Tuesday 21 Oct 2014 (Local Time) from K21D Reporting Station
Clear Clear  
Wind Chill: 34°   Ceiling: Unl
Heat Index: 34°   Visibility: 10mi
Dew Point: 34°   Wind: 0mph
Humidity: 100%   Direction: NA
Pressure: 30.12"   Gusts: NA
Location:  45.067°N, 92.7557°W
Report Text: K21D 210651Z AUTO 00000KT 10SM CLR 01/01 A3012 RMK AO2
Loading
Personal Weather Stations






























Interactive Weather Map
Tropical Storm Tracking
New forecast layout! Learn more

10-Day Weather Forecast

Advertisements
Track Severe Weather on mobile